NWS4215 URSS-UUEE
Flight info
| Callsign | NWS4215 |
|---|---|
| Flight time | N/A |
| Altitude | 35000 |
| Route | IRGID A944 BEMES R227 KZ DCT MOMER/K0841F340 DCT GOLMA N50 OLOPI |
| Aircraft | A21N/M-SDE3FGHIRWY/LB1 |
Departure
| Time | 2026-04-30 19:12 |
|---|---|
| Airport | Sochi International Airport (URSS) |
Arrival
| Time | N/A |
|---|---|
| Airport | Sheremetyevo International Airport (UUEE) |
| Time | Latitude | Longitude | Altitude | Speed | Heading |
|---|---|---|---|---|---|
| 2026-04-30 18:50 | 43.44775 | 39.94249 | 58 ft | 0 kts | 334° |
| 2026-04-30 19:02 | 43.44770 | 39.94252 | 57 ft | 2 kts | 335° |
| 2026-04-30 19:03 | 43.44743 | 39.94268 | 56 ft | 2 kts | 335° |
| 2026-04-30 19:03 | 43.44714 | 39.94281 | 55 ft | 2 kts | 17° |
| 2026-04-30 19:04 | 43.44698 | 39.94262 | 54 ft | 1 kts | 71° |
| 2026-04-30 19:04 | 43.44696 | 39.94255 | 54 ft | 0 kts | 65° |
| 2026-04-30 19:06 | 43.44698 | 39.94262 | 54 ft | 1 kts | 68° |
| 2026-04-30 19:06 | 43.44696 | 39.94288 | 54 ft | 5 kts | 120° |
| 2026-04-30 19:06 | 43.44609 | 39.94198 | 51 ft | 10 kts | 182° |
| 2026-04-30 19:07 | 43.44569 | 39.94212 | 50 ft | 1 kts | 165° |
| 2026-04-30 19:07 | 43.44649 | 39.94273 | 53 ft | 0 kts | 64° |
| 2026-04-30 19:08 | 43.44685 | 39.94375 | 54 ft | 13 kts | 66° |
| 2026-04-30 19:08 | 43.44787 | 39.94678 | 55 ft | 18 kts | 63° |
| 2026-04-30 19:08 | 43.44848 | 39.94854 | 56 ft | 22 kts | 65° |
| 2026-04-30 19:09 | 43.44941 | 39.95132 | 60 ft | 0 kts | 65° |
| 2026-04-30 19:09 | 43.44951 | 39.95160 | 60 ft | 6 kts | 63° |
| 2026-04-30 19:09 | 43.44981 | 39.95236 | 61 ft | 10 kts | 62° |
| 2026-04-30 19:10 | 43.44989 | 39.95314 | 62 ft | 0 kts | 122° |
| 2026-04-30 19:10 | 43.44987 | 39.95317 | 63 ft | 1 kts | 122° |
| 2026-04-30 19:11 | 43.44961 | 39.95348 | 63 ft | 8 kts | 147° |
| 2026-04-30 19:11 | 43.44827 | 39.95155 | 59 ft | 25 kts | 245° |
| 2026-04-30 19:11 | 43.44691 | 39.94751 | 54 ft | 80 kts | 245° |
| 2026-04-30 19:12 | 43.44354 | 39.93765 | 43 ft | 145 kts | 244° |
| 2026-04-30 19:12 | 43.43848 | 39.92308 | 114 ft | 187 kts | 245° |
| 2026-04-30 19:12 | 43.43309 | 39.90715 | 906 ft | 179 kts | 246° |
| 2026-04-30 19:13 | 43.42773 | 39.87407 | 2188 ft | 188 kts | 263° |
| 2026-04-30 19:13 | 43.43479 | 39.83855 | 3045 ft | 216 kts | 309° |
| 2026-04-30 19:13 | 43.44502 | 39.82222 | 3405 ft | 238 kts | 312° |
| 2026-04-30 19:14 | 43.45650 | 39.80424 | 3870 ft | 256 kts | 311° |
| 2026-04-30 19:14 | 43.46821 | 39.78504 | 4433 ft | 270 kts | 309° |
| 2026-04-30 19:14 | 43.48009 | 39.76480 | 5226 ft | 274 kts | 308° |
| 2026-04-30 19:14 | 43.49180 | 39.74439 | 6037 ft | 277 kts | 308° |
| 2026-04-30 19:15 | 43.50364 | 39.72349 | 6817 ft | 280 kts | 307° |
| 2026-04-30 19:15 | 43.52753 | 39.68105 | 8402 ft | 283 kts | 305° |
| 2026-04-30 19:15 | 43.53933 | 39.65998 | 9195 ft | 284 kts | 304° |
| 2026-04-30 19:16 | 43.55146 | 39.63824 | 9759 ft | 284 kts | 304° |
| 2026-04-30 19:16 | 43.56330 | 39.61700 | 10022 ft | 284 kts | 304° |
| 2026-04-30 19:16 | 43.58733 | 39.57377 | 10040 ft | 282 kts | 304° |
| 2026-04-30 19:17 | 43.59928 | 39.55229 | 10052 ft | 282 kts | 304° |
| 2026-04-30 19:17 | 43.62621 | 39.51308 | 10023 ft | 289 kts | 328° |
| 2026-04-30 19:17 | 43.64543 | 39.50420 | 10036 ft | 297 kts | 351° |
| 2026-04-30 19:18 | 43.67289 | 39.50854 | 10040 ft | 303 kts | 16° |
| 2026-04-30 19:18 | 43.70554 | 39.52570 | 10026 ft | 306 kts | 30° |
| 2026-04-30 19:18 | 43.72159 | 39.54548 | 10227 ft | 316 kts | 56° |
| 2026-04-30 19:19 | 43.73077 | 39.57341 | 10566 ft | 329 kts | 78° |
| 2026-04-30 19:19 | 43.73539 | 39.60547 | 10910 ft | 346 kts | 81° |
| 2026-04-30 19:19 | 43.74463 | 39.67331 | 11486 ft | 378 kts | 81° |
| 2026-04-30 19:20 | 43.74994 | 39.71019 | 11776 ft | 394 kts | 80° |
| 2026-04-30 19:20 | 43.75554 | 39.74800 | 12048 ft | 409 kts | 80° |
| 2026-04-30 19:20 | 43.76721 | 39.82595 | 13089 ft | 422 kts | 79° |
| 2026-04-30 19:21 | 43.77320 | 39.86601 | 13668 ft | 426 kts | 79° |
| 2026-04-30 19:21 | 43.78497 | 39.94729 | 14721 ft | 437 kts | 81° |
| 2026-04-30 19:22 | 43.79542 | 40.02895 | 15820 ft | 444 kts | 81° |
| 2026-04-30 19:22 | 43.81165 | 40.15648 | 17317 ft | 456 kts | 81° |
| 2026-04-30 19:23 | 43.82840 | 40.28814 | 18733 ft | 468 kts | 80° |
| 2026-04-30 19:24 | 43.83966 | 40.37711 | 19385 ft | 481 kts | 80° |
| 2026-04-30 19:24 | 43.84552 | 40.42369 | 19569 ft | 491 kts | 80° |
| 2026-04-30 19:24 | 43.85730 | 40.51778 | 20104 ft | 503 kts | 80° |
| 2026-04-30 19:25 | 43.87517 | 40.66191 | 21242 ft | 512 kts | 81° |
| 2026-04-30 19:26 | 43.88363 | 40.75969 | 21946 ft | 517 kts | 86° |
| 2026-04-30 19:26 | 43.88801 | 40.85918 | 22596 ft | 522 kts | 87° |
| 2026-04-30 19:26 | 43.89006 | 40.90944 | 22924 ft | 524 kts | 87° |
| 2026-04-30 19:27 | 43.89425 | 41.01058 | 23539 ft | 528 kts | 87° |
| 2026-04-30 19:27 | 43.89851 | 41.11269 | 24058 ft | 533 kts | 87° |
| 2026-04-30 19:28 | 43.90064 | 41.16403 | 24318 ft | 535 kts | 87° |
| 2026-04-30 19:28 | 43.90482 | 41.26652 | 24764 ft | 539 kts | 87° |
| 2026-04-30 19:29 | 43.90894 | 41.36999 | 25245 ft | 540 kts | 87° |
| 2026-04-30 19:29 | 43.91098 | 41.42197 | 25524 ft | 540 kts | 87° |
| 2026-04-30 19:30 | 43.91691 | 41.57752 | 26359 ft | 539 kts | 88° |
| 2026-04-30 19:30 | 43.92055 | 41.68033 | 27196 ft | 533 kts | 88° |
| 2026-04-30 19:31 | 43.92407 | 41.78327 | 27517 ft | 537 kts | 88° |
| 2026-04-30 19:31 | 43.92578 | 41.83426 | 27683 ft | 538 kts | 88° |
| 2026-04-30 19:31 | 43.92923 | 41.93790 | 28106 ft | 539 kts | 88° |
| 2026-04-30 19:32 | 43.93092 | 41.98944 | 28498 ft | 535 kts | 88° |
| 2026-04-30 19:32 | 43.93248 | 42.03796 | 28780 ft | 534 kts | 88° |
| 2026-04-30 19:32 | 43.93412 | 42.08956 | 28931 ft | 536 kts | 88° |
| 2026-04-30 19:32 | 43.93573 | 42.14120 | 29076 ft | 538 kts | 88° |
| 2026-04-30 19:33 | 43.93733 | 42.19291 | 29259 ft | 538 kts | 88° |
| 2026-04-30 19:33 | 43.93889 | 42.24409 | 29510 ft | 537 kts | 88° |
| 2026-04-30 19:33 | 43.94045 | 42.29590 | 30076 ft | 529 kts | 88° |
| 2026-04-30 19:33 | 43.94194 | 42.34626 | 30622 ft | 523 kts | 88° |
| 2026-04-30 19:34 | 43.94340 | 42.39646 | 30829 ft | 524 kts | 88° |
| 2026-04-30 19:34 | 43.94484 | 42.44640 | 30977 ft | 526 kts | 88° |
| 2026-04-30 19:34 | 43.94769 | 42.54837 | 31293 ft | 529 kts | 88° |
| 2026-04-30 19:35 | 43.94906 | 42.59894 | 31436 ft | 531 kts | 88° |
| 2026-04-30 19:35 | 43.95027 | 42.65034 | 31567 ft | 532 kts | 90° |
| 2026-04-30 19:35 | 43.95071 | 42.70136 | 31720 ft | 532 kts | 90° |
| 2026-04-30 19:35 | 43.95085 | 42.75272 | 31846 ft | 533 kts | 91° |
| 2026-04-30 19:36 | 43.95091 | 42.80368 | 31950 ft | 535 kts | 91° |
| 2026-04-30 19:36 | 43.95097 | 42.85553 | 32060 ft | 535 kts | 90° |
| 2026-04-30 19:36 | 43.95119 | 42.95827 | 32340 ft | 535 kts | 90° |
| 2026-04-30 19:37 | 43.95132 | 43.01012 | 32481 ft | 535 kts | 90° |
| 2026-04-30 19:37 | 43.95144 | 43.06191 | 32612 ft | 536 kts | 90° |
| 2026-04-30 19:37 | 43.95152 | 43.11306 | 32732 ft | 536 kts | 90° |
| 2026-04-30 19:37 | 43.95160 | 43.16457 | 32879 ft | 535 kts | 90° |
| 2026-04-30 19:38 | 43.95166 | 43.21629 | 33017 ft | 535 kts | 90° |
| 2026-04-30 19:38 | 43.95168 | 43.26785 | 33131 ft | 535 kts | 90° |
| 2026-04-30 19:38 | 43.95169 | 43.31917 | 33242 ft | 536 kts | 90° |
| 2026-04-30 19:38 | 43.95167 | 43.37078 | 33343 ft | 536 kts | 90° |
| 2026-04-30 19:39 | 43.95162 | 43.42220 | 33470 ft | 536 kts | 90° |
| 2026-04-30 19:39 | 43.95155 | 43.47379 | 33586 ft | 536 kts | 90° |
| 2026-04-30 19:39 | 43.95147 | 43.52512 | 33693 ft | 536 kts | 90° |
| 2026-04-30 19:39 | 43.95135 | 43.57625 | 33806 ft | 536 kts | 90° |
| 2026-04-30 19:40 | 43.95123 | 43.62794 | 33916 ft | 536 kts | 90° |
| 2026-04-30 19:40 | 43.95106 | 43.67951 | 34012 ft | 536 kts | 91° |
| 2026-04-30 19:40 | 43.95069 | 43.78248 | 34193 ft | 535 kts | 91° |
| 2026-04-30 19:41 | 43.95020 | 43.88543 | 34365 ft | 535 kts | 91° |
| 2026-04-30 19:41 | 43.94963 | 43.98862 | 34544 ft | 534 kts | 91° |
| 2026-04-30 19:42 | 43.94897 | 44.08946 | 34700 ft | 534 kts | 91° |
| 2026-04-30 19:42 | 43.94820 | 44.19217 | 34831 ft | 534 kts | 91° |
| 2026-04-30 19:43 | 43.94735 | 44.29504 | 34965 ft | 533 kts | 91° |
| 2026-04-30 19:44 | 43.94592 | 44.44789 | 35113 ft | 531 kts | 91° |
| 2026-04-30 19:44 | 43.94485 | 44.55006 | 35119 ft | 531 kts | 91° |
| 2026-04-30 19:45 | 43.94368 | 44.65272 | 35120 ft | 531 kts | 92° |
| 2026-04-30 19:45 | 43.94245 | 44.75459 | 35116 ft | 531 kts | 92° |
| 2026-04-30 19:46 | 43.94110 | 44.85686 | 35117 ft | 531 kts | 92° |
| 2026-04-30 19:46 | 43.93966 | 44.95878 | 35114 ft | 530 kts | 92° |
| 2026-04-30 19:47 | 43.93813 | 45.06067 | 35114 ft | 530 kts | 92° |
| 2026-04-30 19:47 | 43.93653 | 45.16211 | 35112 ft | 530 kts | 92° |
| 2026-04-30 19:48 | 43.93484 | 45.26393 | 35113 ft | 529 kts | 92° |
| 2026-04-30 19:48 | 43.93305 | 45.36555 | 35114 ft | 529 kts | 92° |
| 2026-04-30 19:49 | 43.93117 | 45.46729 | 35112 ft | 529 kts | 92° |
| 2026-04-30 19:49 | 43.92822 | 45.61962 | 35114 ft | 529 kts | 92° |
| 2026-04-30 19:50 | 43.92616 | 45.72033 | 35111 ft | 529 kts | 93° |
| 2026-04-30 19:50 | 43.92396 | 45.82180 | 35113 ft | 530 kts | 93° |
| 2026-04-30 19:51 | 43.91949 | 45.92326 | 35115 ft | 529 kts | 98° |
| 2026-04-30 19:51 | 43.90926 | 46.02410 | 35110 ft | 529 kts | 100° |
| 2026-04-30 19:52 | 43.89843 | 46.12432 | 35114 ft | 528 kts | 100° |
| 2026-04-30 19:52 | 43.88763 | 46.22528 | 35113 ft | 528 kts | 99° |
| 2026-04-30 19:53 | 43.87693 | 46.32536 | 35112 ft | 528 kts | 100° |
| 2026-04-30 19:53 | 43.86611 | 46.42589 | 35113 ft | 527 kts | 99° |
| 2026-04-30 19:54 | 43.85524 | 46.52578 | 35114 ft | 527 kts | 99° |
| 2026-04-30 19:54 | 43.85588 | 46.62635 | 35097 ft | 527 kts | 71° |
| 2026-04-30 19:55 | 43.87061 | 46.67233 | 35106 ft | 519 kts | 54° |
| 2026-04-30 19:55 | 43.89327 | 46.70961 | 35111 ft | 508 kts | 36° |
| 2026-04-30 19:55 | 43.92205 | 46.73682 | 35117 ft | 494 kts | 20° |
| 2026-04-30 19:55 | 43.95362 | 46.75211 | 35121 ft | 479 kts | 5° |
| 2026-04-30 19:56 | 44.01915 | 46.76964 | 35116 ft | 480 kts | 4° |
| 2026-04-30 19:56 | 44.08513 | 46.78737 | 35112 ft | 481 kts | 4° |
| 2026-04-30 19:57 | 44.15067 | 46.80195 | 35107 ft | 470 kts | 354° |
| 2026-04-30 19:57 | 44.21356 | 46.79089 | 35116 ft | 454 kts | 339° |
| 2026-04-30 19:58 | 44.27499 | 46.77009 | 35114 ft | 454 kts | 339° |
| 2026-04-30 19:58 | 44.33660 | 46.74916 | 35116 ft | 455 kts | 339° |
| 2026-04-30 19:59 | 44.39805 | 46.72858 | 35117 ft | 455 kts | 339° |
| 2026-04-30 20:00 | 44.49022 | 46.69786 | 35108 ft | 454 kts | 339° |
| 2026-04-30 20:00 | 44.55131 | 46.67749 | 35113 ft | 454 kts | 339° |
| 2026-04-30 20:01 | 44.64360 | 46.64665 | 35117 ft | 455 kts | 339° |
| 2026-04-30 20:01 | 44.70468 | 46.62621 | 35112 ft | 455 kts | 338° |
| 2026-04-30 20:02 | 44.79716 | 46.59518 | 35116 ft | 454 kts | 338° |
| 2026-04-30 20:03 | 44.88890 | 46.56426 | 35130 ft | 455 kts | 338° |
| 2026-04-30 20:03 | 44.95067 | 46.54341 | 35180 ft | 454 kts | 338° |
| 2026-04-30 20:04 | 45.01199 | 46.52265 | 35140 ft | 454 kts | 338° |
| 2026-04-30 20:05 | 45.10369 | 46.49150 | 35136 ft | 454 kts | 338° |
| 2026-04-30 20:05 | 45.19609 | 46.46000 | 35142 ft | 454 kts | 338° |
| 2026-04-30 20:06 | 45.25714 | 46.43915 | 35138 ft | 453 kts | 338° |
| 2026-04-30 20:06 | 45.31721 | 46.41860 | 35141 ft | 453 kts | 338° |
| 2026-04-30 20:07 | 45.37836 | 46.39762 | 35138 ft | 453 kts | 338° |
| 2026-04-30 20:08 | 45.47042 | 46.36592 | 35145 ft | 454 kts | 338° |
| 2026-04-30 20:08 | 45.53147 | 46.34489 | 35146 ft | 453 kts | 337° |
| 2026-04-30 20:09 | 45.59277 | 46.32370 | 35143 ft | 453 kts | 337° |
| 2026-04-30 20:09 | 45.68431 | 46.29195 | 35148 ft | 452 kts | 337° |
| 2026-04-30 20:10 | 45.77616 | 46.25999 | 35150 ft | 453 kts | 336° |
| 2026-04-30 20:11 | 45.86804 | 46.22793 | 35153 ft | 453 kts | 336° |
| 2026-04-30 20:11 | 45.92907 | 46.20654 | 35153 ft | 453 kts | 337° |
| 2026-04-30 20:12 | 46.02064 | 46.17441 | 35140 ft | 454 kts | 337° |
| 2026-04-30 20:13 | 46.08167 | 46.15292 | 35137 ft | 454 kts | 336° |
| 2026-04-30 20:13 | 46.14287 | 46.13129 | 35143 ft | 453 kts | 337° |
| 2026-04-30 20:14 | 46.20428 | 46.10957 | 35123 ft | 453 kts | 337° |
| 2026-04-30 20:14 | 46.26529 | 46.08795 | 35140 ft | 454 kts | 337° |
| 2026-04-30 20:15 | 46.32664 | 46.06614 | 35144 ft | 455 kts | 337° |
| 2026-04-30 20:15 | 46.38798 | 46.04430 | 35139 ft | 455 kts | 337° |
| 2026-04-30 20:16 | 46.44953 | 46.02228 | 35113 ft | 456 kts | 338° |
| 2026-04-30 20:16 | 46.51109 | 46.00029 | 35125 ft | 457 kts | 338° |
| 2026-04-30 20:17 | 46.57161 | 45.97858 | 35117 ft | 458 kts | 338° |
| 2026-04-30 20:17 | 46.63347 | 45.95636 | 35135 ft | 458 kts | 338° |
| 2026-04-30 20:18 | 46.69508 | 45.93415 | 35128 ft | 458 kts | 338° |
| 2026-04-30 20:18 | 46.75676 | 45.91187 | 35128 ft | 458 kts | 338° |
| 2026-04-30 20:19 | 46.81536 | 45.87899 | 35149 ft | 448 kts | 327° |
| 2026-04-30 20:19 | 46.87123 | 45.84023 | 35140 ft | 447 kts | 327° |
| 2026-04-30 20:20 | 46.92740 | 45.80124 | 35126 ft | 447 kts | 327° |
| 2026-04-30 20:20 | 46.98375 | 45.76236 | 35153 ft | 448 kts | 327° |
| 2026-04-30 20:21 | 47.03777 | 45.72512 | 35146 ft | 449 kts | 327° |
| 2026-04-30 20:21 | 47.09426 | 45.68612 | 35149 ft | 450 kts | 328° |
| 2026-04-30 20:22 | 47.15078 | 45.64706 | 35143 ft | 450 kts | 327° |
| 2026-04-30 20:22 | 47.20737 | 45.60785 | 35151 ft | 450 kts | 327° |
| 2026-04-30 20:23 | 47.26405 | 45.56848 | 35157 ft | 451 kts | 327° |
| 2026-04-30 20:23 | 47.32083 | 45.52897 | 35148 ft | 452 kts | 327° |
| 2026-04-30 20:24 | 47.37758 | 45.48935 | 35155 ft | 452 kts | 327° |
| 2026-04-30 20:24 | 47.43400 | 45.44989 | 35147 ft | 452 kts | 327° |
| 2026-04-30 20:25 | 47.51942 | 45.38995 | 35148 ft | 454 kts | 327° |
| 2026-04-30 20:26 | 47.60504 | 45.32966 | 35152 ft | 454 kts | 327° |
| 2026-04-30 20:26 | 47.69024 | 45.26945 | 35139 ft | 455 kts | 327° |
| 2026-04-30 20:27 | 47.80464 | 45.18824 | 35155 ft | 456 kts | 327° |
| 2026-04-30 20:28 | 47.91912 | 45.10658 | 35147 ft | 459 kts | 327° |
| 2026-04-30 20:30 | 48.06276 | 45.00355 | 35134 ft | 460 kts | 327° |
| 2026-04-30 20:31 | 48.23458 | 44.87948 | 35143 ft | 461 kts | 328° |
| 2026-04-30 20:32 | 48.37892 | 44.77454 | 35148 ft | 463 kts | 328° |
| 2026-04-30 20:33 | 48.46546 | 44.71127 | 35138 ft | 463 kts | 328° |
| 2026-04-30 20:34 | 48.55198 | 44.64784 | 35140 ft | 462 kts | 328° |
| 2026-04-30 20:35 | 48.63775 | 44.58464 | 35131 ft | 463 kts | 328° |
| 2026-04-30 20:35 | 48.72449 | 44.52052 | 35134 ft | 464 kts | 328° |
| 2026-04-30 20:36 | 48.78219 | 44.47772 | 35130 ft | 464 kts | 328° |
| 2026-04-30 20:37 | 48.86930 | 44.41291 | 35139 ft | 465 kts | 328° |
| 2026-04-30 20:37 | 48.92724 | 44.36966 | 35132 ft | 465 kts | 329° |
| 2026-04-30 20:38 | 48.98485 | 44.32652 | 35144 ft | 465 kts | 328° |
| 2026-04-30 20:38 | 49.04168 | 44.28389 | 35142 ft | 465 kts | 328° |
| 2026-04-30 20:39 | 49.12845 | 44.21860 | 35140 ft | 464 kts | 328° |
| 2026-04-30 20:40 | 49.21491 | 44.15322 | 35132 ft | 464 kts | 328° |
| 2026-04-30 20:40 | 49.27262 | 44.10945 | 35136 ft | 464 kts | 328° |
| 2026-04-30 20:41 | 49.35850 | 44.04407 | 35130 ft | 465 kts | 328° |
| 2026-04-30 20:41 | 49.41618 | 43.99998 | 35121 ft | 466 kts | 328° |
| 2026-04-30 20:42 | 49.47288 | 43.95578 | 35232 ft | 464 kts | 326° |
| 2026-04-30 20:42 | 49.52763 | 43.90367 | 35355 ft | 460 kts | 321° |
| 2026-04-30 20:43 | 49.55316 | 43.87477 | 35402 ft | 459 kts | 318° |
| 2026-04-30 20:43 | 49.60247 | 43.81234 | 35494 ft | 458 kts | 316° |
| 2026-04-30 20:44 | 49.67526 | 43.71777 | 35636 ft | 459 kts | 316° |
| 2026-04-30 20:45 | 49.77255 | 43.59107 | 35799 ft | 460 kts | 316° |
| 2026-04-30 20:45 | 49.82149 | 43.52712 | 35865 ft | 461 kts | 316° |
| 2026-04-30 20:46 | 49.91827 | 43.40012 | 35990 ft | 461 kts | 316° |
| 2026-04-30 20:47 | 49.99149 | 43.30364 | 36105 ft | 461 kts | 315° |
| 2026-04-30 20:48 | 50.06452 | 43.20696 | 36117 ft | 462 kts | 316° |
| 2026-04-30 20:48 | 50.11311 | 43.14247 | 36111 ft | 463 kts | 316° |
| 2026-04-30 20:49 | 50.16189 | 43.07749 | 36111 ft | 464 kts | 316° |
| 2026-04-30 20:50 | 50.23523 | 42.97943 | 36113 ft | 464 kts | 316° |
| 2026-04-30 20:50 | 50.28397 | 42.91405 | 36127 ft | 464 kts | 316° |
| 2026-04-30 20:51 | 50.33201 | 42.84942 | 36126 ft | 464 kts | 316° |
| 2026-04-30 20:51 | 50.40525 | 42.75051 | 36131 ft | 465 kts | 316° |
| 2026-04-30 20:52 | 50.45410 | 42.68432 | 36133 ft | 464 kts | 316° |
| 2026-04-30 20:53 | 50.52732 | 42.58578 | 36132 ft | 466 kts | 319° |
| 2026-04-30 20:53 | 50.57973 | 42.52581 | 36138 ft | 469 kts | 323° |
| 2026-04-30 20:54 | 50.66027 | 42.43981 | 36133 ft | 469 kts | 323° |
| 2026-04-30 20:55 | 50.74099 | 42.35322 | 36129 ft | 469 kts | 323° |
| 2026-04-30 20:55 | 50.79472 | 42.29529 | 36132 ft | 468 kts | 322° |
| 2026-04-30 20:56 | 50.87463 | 42.20880 | 36125 ft | 468 kts | 323° |
| 2026-04-30 20:57 | 50.95507 | 42.12135 | 36129 ft | 469 kts | 323° |
| 2026-04-30 20:57 | 51.00753 | 42.06412 | 36128 ft | 470 kts | 323° |
| 2026-04-30 20:58 | 51.08823 | 41.97576 | 36134 ft | 470 kts | 323° |
| 2026-04-30 20:58 | 51.14193 | 41.91675 | 36136 ft | 470 kts | 323° |
| 2026-04-30 20:59 | 51.22201 | 41.82844 | 36136 ft | 469 kts | 323° |
| 2026-04-30 21:00 | 51.32889 | 41.70998 | 36139 ft | 469 kts | 323° |
| 2026-04-30 21:01 | 51.40825 | 41.62156 | 36142 ft | 471 kts | 323° |
| 2026-04-30 21:02 | 51.48768 | 41.53267 | 36142 ft | 471 kts | 323° |
| 2026-04-30 21:02 | 51.54124 | 41.47250 | 36144 ft | 472 kts | 323° |
| 2026-04-30 21:03 | 51.59490 | 41.41203 | 36151 ft | 472 kts | 323° |
| 2026-04-30 21:03 | 51.64830 | 41.35165 | 36161 ft | 472 kts | 323° |
| 2026-04-30 21:04 | 51.70041 | 41.29266 | 36160 ft | 472 kts | 322° |
| 2026-04-30 21:04 | 51.78075 | 41.20150 | 36162 ft | 472 kts | 322° |
| 2026-04-30 21:05 | 51.83474 | 41.13992 | 36162 ft | 472 kts | 323° |
| 2026-04-30 21:05 | 51.88794 | 41.07904 | 36165 ft | 473 kts | 323° |
| 2026-04-30 21:06 | 51.94169 | 41.01732 | 36166 ft | 473 kts | 323° |
| 2026-04-30 21:06 | 51.99507 | 40.95583 | 36162 ft | 473 kts | 323° |
| 2026-04-30 21:07 | 52.04824 | 40.89672 | 36153 ft | 474 kts | 326° |
| 2026-04-30 21:07 | 52.10500 | 40.84308 | 36150 ft | 475 kts | 329° |
| 2026-04-30 21:08 | 52.16253 | 40.79045 | 36149 ft | 474 kts | 329° |
| 2026-04-30 21:08 | 52.21985 | 40.73771 | 36145 ft | 474 kts | 329° |
| 2026-04-30 21:09 | 52.27653 | 40.68527 | 36146 ft | 471 kts | 329° |
| 2026-04-30 21:09 | 52.33241 | 40.63339 | 36152 ft | 474 kts | 329° |
| 2026-04-30 21:10 | 52.38977 | 40.58003 | 36155 ft | 475 kts | 329° |
| 2026-04-30 21:10 | 52.44686 | 40.52666 | 36156 ft | 475 kts | 329° |
| 2026-04-30 21:11 | 52.50380 | 40.47325 | 36157 ft | 474 kts | 329° |
| 2026-04-30 21:11 | 52.56127 | 40.41970 | 36159 ft | 474 kts | 330° |
| 2026-04-30 21:12 | 52.61835 | 40.36638 | 36161 ft | 474 kts | 330° |
| 2026-04-30 21:12 | 52.67535 | 40.31289 | 36162 ft | 474 kts | 329° |
| 2026-04-30 21:13 | 52.73232 | 40.25922 | 36160 ft | 474 kts | 329° |
| 2026-04-30 21:13 | 52.78917 | 40.20548 | 36163 ft | 474 kts | 329° |
| 2026-04-30 21:14 | 52.84628 | 40.15139 | 36164 ft | 474 kts | 329° |
| 2026-04-30 21:14 | 52.90206 | 40.09853 | 36163 ft | 474 kts | 329° |
| 2026-04-30 21:15 | 52.95926 | 40.04410 | 36169 ft | 474 kts | 329° |
| 2026-04-30 21:15 | 53.01619 | 39.98972 | 36169 ft | 474 kts | 329° |
| 2026-04-30 21:16 | 53.07327 | 39.93500 | 36171 ft | 474 kts | 329° |
| 2026-04-30 21:16 | 53.13010 | 39.88036 | 36168 ft | 474 kts | 329° |
| 2026-04-30 21:17 | 53.18681 | 39.82567 | 36167 ft | 474 kts | 329° |
| 2026-04-30 21:17 | 53.24366 | 39.77065 | 36171 ft | 473 kts | 329° |
| 2026-04-30 21:18 | 53.30062 | 39.71531 | 36176 ft | 473 kts | 330° |
| 2026-04-30 21:18 | 53.35703 | 39.66036 | 36177 ft | 472 kts | 330° |
| 2026-04-30 21:19 | 53.41391 | 39.60550 | 36175 ft | 472 kts | 332° |
| 2026-04-30 21:19 | 53.47228 | 39.55537 | 36177 ft | 473 kts | 333° |
| 2026-04-30 21:20 | 53.53056 | 39.50629 | 36177 ft | 472 kts | 333° |
| 2026-04-30 21:20 | 53.58924 | 39.45657 | 36177 ft | 472 kts | 333° |
| 2026-04-30 21:21 | 53.64762 | 39.40683 | 36175 ft | 471 kts | 334° |
| 2026-04-30 21:22 | 53.73494 | 39.33209 | 36172 ft | 471 kts | 333° |
| 2026-04-30 21:23 | 53.85084 | 39.23231 | 35848 ft | 457 kts | 333° |
| 2026-04-30 21:23 | 53.87861 | 39.20832 | 35457 ft | 451 kts | 333° |
| 2026-04-30 21:23 | 53.93430 | 39.16014 | 34303 ft | 452 kts | 333° |
| 2026-04-30 21:24 | 53.96197 | 39.13613 | 33641 ft | 453 kts | 333° |
| 2026-04-30 21:24 | 53.99016 | 39.11161 | 32999 ft | 456 kts | 333° |
| 2026-04-30 21:24 | 54.01626 | 39.08888 | 32413 ft | 459 kts | 333° |
| 2026-04-30 21:24 | 54.04485 | 39.06394 | 31774 ft | 461 kts | 333° |
| 2026-04-30 21:25 | 54.10122 | 39.01463 | 30797 ft | 456 kts | 334° |
| 2026-04-30 21:25 | 54.12882 | 38.99041 | 30307 ft | 455 kts | 334° |
| 2026-04-30 21:25 | 54.15732 | 38.96537 | 29813 ft | 451 kts | 334° |
| 2026-04-30 21:26 | 54.21138 | 38.91776 | 28974 ft | 442 kts | 334° |
| 2026-04-30 21:26 | 54.23844 | 38.89395 | 28571 ft | 436 kts | 334° |
| 2026-04-30 21:27 | 54.29151 | 38.84874 | 28234 ft | 412 kts | 335° |
| 2026-04-30 21:27 | 54.31663 | 38.82742 | 28207 ft | 396 kts | 335° |
| 2026-04-30 21:27 | 54.34093 | 38.80676 | 28199 ft | 392 kts | 335° |
| 2026-04-30 21:28 | 54.41423 | 38.74414 | 27696 ft | 396 kts | 335° |
| 2026-04-30 21:28 | 54.46317 | 38.70210 | 26774 ft | 394 kts | 335° |
| 2026-04-30 21:29 | 54.48785 | 38.68088 | 26336 ft | 390 kts | 334° |
| 2026-04-30 21:29 | 54.55736 | 38.62084 | 26182 ft | 361 kts | 335° |
| 2026-04-30 21:30 | 54.60140 | 38.58270 | 26184 ft | 355 kts | 335° |
| 2026-04-30 21:31 | 54.66723 | 38.52552 | 26184 ft | 352 kts | 336° |
| 2026-04-30 21:31 | 54.71090 | 38.48747 | 26185 ft | 352 kts | 335° |
| 2026-04-30 21:32 | 54.75467 | 38.44938 | 26192 ft | 365 kts | 336° |
| 2026-04-30 21:32 | 54.77786 | 38.42933 | 26189 ft | 375 kts | 336° |
| 2026-04-30 21:32 | 54.80103 | 38.40922 | 26185 ft | 378 kts | 336° |
| 2026-04-30 21:32 | 54.82438 | 38.38871 | 26182 ft | 378 kts | 334° |
| 2026-04-30 21:33 | 54.84689 | 38.36446 | 26184 ft | 381 kts | 328° |
| 2026-04-30 21:33 | 54.88650 | 38.30357 | 26179 ft | 384 kts | 317° |
| 2026-04-30 21:33 | 54.90521 | 38.27015 | 26171 ft | 384 kts | 317° |
| 2026-04-30 21:34 | 54.92353 | 38.23714 | 26057 ft | 386 kts | 317° |
| 2026-04-30 21:34 | 54.96093 | 38.17009 | 25068 ft | 385 kts | 317° |
| 2026-04-30 21:34 | 54.97961 | 38.13664 | 24603 ft | 383 kts | 317° |
| 2026-04-30 21:35 | 54.99782 | 38.10394 | 24153 ft | 379 kts | 317° |
| 2026-04-30 21:35 | 55.01615 | 38.07093 | 23717 ft | 375 kts | 317° |
| 2026-04-30 21:35 | 55.03400 | 38.03877 | 23297 ft | 371 kts | 317° |
| 2026-04-30 21:35 | 55.05180 | 38.00662 | 22874 ft | 368 kts | 317° |
| 2026-04-30 21:36 | 55.06849 | 37.97645 | 22475 ft | 364 kts | 317° |
| 2026-04-30 21:36 | 55.08597 | 37.94481 | 22064 ft | 361 kts | 317° |
| 2026-04-30 21:37 | 55.13757 | 37.85128 | 20819 ft | 352 kts | 317° |
| 2026-04-30 21:37 | 55.15454 | 37.82105 | 20412 ft | 348 kts | 319° |
| 2026-04-30 21:37 | 55.17230 | 37.79309 | 20187 ft | 338 kts | 323° |
| 2026-04-30 21:37 | 55.19043 | 37.76810 | 20173 ft | 329 kts | 327° |
| 2026-04-30 21:38 | 55.20857 | 37.74480 | 20181 ft | 325 kts | 327° |
| 2026-04-30 21:38 | 55.22684 | 37.72160 | 20178 ft | 322 kts | 327° |
| 2026-04-30 21:38 | 55.24474 | 37.69889 | 20173 ft | 321 kts | 327° |
| 2026-04-30 21:38 | 55.26282 | 37.67588 | 20182 ft | 319 kts | 327° |
| 2026-04-30 21:39 | 55.28057 | 37.65322 | 20186 ft | 318 kts | 327° |
| 2026-04-30 21:39 | 55.29845 | 37.63038 | 20179 ft | 318 kts | 327° |
| 2026-04-30 21:39 | 55.31645 | 37.60732 | 20185 ft | 318 kts | 328° |
| 2026-04-30 21:39 | 55.33355 | 37.58537 | 20198 ft | 318 kts | 327° |
| 2026-04-30 21:40 | 55.35150 | 37.56234 | 20197 ft | 318 kts | 327° |
| 2026-04-30 21:40 | 55.36927 | 37.53947 | 20187 ft | 318 kts | 327° |
| 2026-04-30 21:40 | 55.38696 | 37.51669 | 20165 ft | 318 kts | 327° |
| 2026-04-30 21:40 | 55.40413 | 37.49455 | 20122 ft | 317 kts | 327° |
| 2026-04-30 21:41 | 55.42206 | 37.47139 | 19849 ft | 319 kts | 327° |
| 2026-04-30 21:41 | 55.43976 | 37.44849 | 19474 ft | 318 kts | 327° |
| 2026-04-30 21:41 | 55.45743 | 37.42563 | 19030 ft | 316 kts | 327° |
| 2026-04-30 21:41 | 55.47504 | 37.40280 | 18639 ft | 314 kts | 327° |
| 2026-04-30 21:42 | 55.49247 | 37.38028 | 18264 ft | 310 kts | 329° |
| 2026-04-30 21:42 | 55.51149 | 37.36331 | 17872 ft | 303 kts | 346° |
| 2026-04-30 21:42 | 55.53189 | 37.35725 | 17497 ft | 297 kts | 0° |
| 2026-04-30 21:42 | 55.55225 | 37.35681 | 17132 ft | 294 kts | 1° |
| 2026-04-30 21:43 | 55.57274 | 37.35684 | 16761 ft | 292 kts | 1° |
| 2026-04-30 21:43 | 55.58620 | 37.35685 | 16521 ft | 291 kts | 1° |
| 2026-04-30 21:43 | 55.61298 | 37.35675 | 16038 ft | 288 kts | 1° |
| 2026-04-30 21:43 | 55.63293 | 37.35663 | 15674 ft | 286 kts | 1° |
| 2026-04-30 21:44 | 55.65282 | 37.35646 | 15317 ft | 284 kts | 1° |
| 2026-04-30 21:44 | 55.67224 | 37.35627 | 14968 ft | 282 kts | 1° |
| 2026-04-30 21:44 | 55.69185 | 37.35608 | 14617 ft | 280 kts | 0° |
| 2026-04-30 21:44 | 55.71116 | 37.35588 | 14269 ft | 279 kts | 0° |
| 2026-04-30 21:45 | 55.73046 | 37.35532 | 13926 ft | 277 kts | 358° |
| 2026-04-30 21:45 | 55.74959 | 37.35346 | 13587 ft | 275 kts | 358° |
| 2026-04-30 21:45 | 55.76863 | 37.35139 | 13250 ft | 274 kts | 358° |
| 2026-04-30 21:45 | 55.78760 | 37.34930 | 12911 ft | 272 kts | 356° |
| 2026-04-30 21:46 | 55.80644 | 37.34726 | 12574 ft | 270 kts | 356° |
| 2026-04-30 21:46 | 55.82499 | 37.34525 | 12241 ft | 269 kts | 357° |
| 2026-04-30 21:46 | 55.84367 | 37.34323 | 12096 ft | 274 kts | 356° |
| 2026-04-30 21:46 | 55.86298 | 37.34111 | 12083 ft | 276 kts | 356° |
| 2026-04-30 21:47 | 55.88213 | 37.33900 | 11724 ft | 277 kts | 356° |
| 2026-04-30 21:47 | 55.90127 | 37.33688 | 11364 ft | 276 kts | 356° |
| 2026-04-30 21:47 | 55.92019 | 37.33479 | 11014 ft | 274 kts | 356° |
| 2026-04-30 21:47 | 55.93903 | 37.33270 | 10671 ft | 272 kts | 356° |
| 2026-04-30 21:48 | 55.95796 | 37.33060 | 10325 ft | 270 kts | 356° |
| 2026-04-30 21:48 | 55.97638 | 37.32559 | 9971 ft | 268 kts | 344° |
| 2026-04-30 21:48 | 55.99317 | 37.31252 | 9852 ft | 267 kts | 331° |
| 2026-04-30 21:48 | 56.00921 | 37.29487 | 9879 ft | 270 kts | 329° |
| 2026-04-30 21:49 | 56.02488 | 37.27689 | 9904 ft | 270 kts | 328° |
| 2026-04-30 21:49 | 56.04083 | 37.25855 | 9927 ft | 270 kts | 329° |
| 2026-04-30 21:49 | 56.05660 | 37.24052 | 9936 ft | 271 kts | 329° |
| 2026-04-30 21:49 | 56.07252 | 37.22237 | 9649 ft | 273 kts | 329° |